Riverton, Connecticut
Current Conditions -  °F | °C
As of 8:51 AM on Saturday 20 Dec 2014 (Local Time) from KBDL Reporting Station
Overcast Overcast  
Wind Chill: 17°   Ceiling: 2800
Heat Index: 27°   Visibility: 10mi
Dew Point: 18°   Wind: 10mph
Humidity: 69%   Direction: 20°NNE
Pressure: 30.28"   Gusts: NA
Location:  41.96°N, 73.02°W
Report Text: KBDL 201351Z 02009KT 10SM OVC028 M03/M08 A3028 RMK AO2 SLP254 T10281078 $
Loading
Personal Weather Stations






























Interactive Weather Map New forecast layout! Learn more

10-Day Weather Forecast

Advertisements
Track Severe Weather on mobile